Time;durP1;ratioP1;P1;durP2;ratioP2;P2;SDS_P1;SDS_P2;PMS_P1;PMS_P2;Temp;Humidity;BMP_temperature;BMP_pressure;BME280_temperature;BME280_humidity;BME280_pressure;Samples;Min_cycle;Max_cycle;Signal;HPM_P1;HPM_P2
2023/06/19 00:00:32;;;;;;;4.63;4.22;;;21.10;92.90;;;;;;5077810;28;20258;-95
2023/06/19 00:02:58;;;;;;;5.43;4.88;;;21.20;92.90;;;;;;5077332;28;20235;-95
2023/06/19 00:05:25;;;;;;;4.78;4.28;;;21.20;92.60;;;;;;5076250;28;20200;-94
2023/06/19 00:07:51;;;;;;;5.43;4.45;;;21.10;92.80;;;;;;5076052;28;20202;-94
2023/06/19 00:10:17;;;;;;;6.18;4.82;;;21.20;92.50;;;;;;5077816;28;20173;-94
2023/06/19 00:12:43;;;;;;;5.18;4.60;;;21.10;92.40;;;;;;5079485;28;20263;-95
2023/06/19 00:15:09;;;;;;;5.20;4.70;;;21.20;92.50;;;;;;5082227;28;20201;-94
2023/06/19 00:17:37;;;;;;;5.63;4.80;;;21.20;92.70;;;;;;5081410;28;20692;-94
2023/06/19 00:20:06;;;;;;;5.90;4.80;;;21.20;92.80;;;;;;5082129;28;20196;-95
2023/06/19 00:22:32;;;;;;;4.88;4.28;;;21.20;92.80;;;;;;5081028;28;20639;-96
2023/06/19 00:24:59;;;;;;;5.65;4.57;;;21.10;93.10;;;;;;5082028;28;20197;-94
2023/06/19 00:27:26;;;;;;;6.93;4.40;;;21.10;92.50;;;;;;5082463;28;20173;-94
2023/06/19 00:29:52;;;;;;;7.57;4.32;;;21.10;93.00;;;;;;5082060;28;20173;-95
2023/06/19 00:32:17;;;;;;;4.95;4.15;;;21.10;93.30;;;;;;5081542;28;20173;-95
2023/06/19 00:34:44;;;;;;;4.90;4.35;;;21.10;93.10;;;;;;5082516;28;20193;-94
2023/06/19 00:37:13;;;;;;;6.75;4.65;;;21.10;93.40;;;;;;5082117;28;20709;-94
2023/06/19 00:39:40;;;;;;;5.63;4.55;;;21.00;93.00;;;;;;5082065;28;20177;-95
2023/06/19 00:42:07;;;;;;;5.65;4.38;;;21.00;92.70;;;;;;5081578;28;20217;-95
2023/06/19 00:44:33;;;;;;;6.28;4.85;;;21.00;92.80;;;;;;5080288;28;20215;-94
2023/06/19 00:47:01;;;;;;;5.22;4.40;;;21.00;92.90;;;;;;5081436;28;20166;-94
2023/06/19 00:49:30;;;;;;;5.00;4.47;;;20.90;92.70;;;;;;5081511;28;20172;-95
2023/06/19 00:51:57;;;;;;;6.60;4.65;;;20.90;92.50;;;;;;5081930;28;20192;-96
2023/06/19 00:54:23;;;;;;;5.00;4.50;;;20.90;92.90;;;;;;5081494;28;20205;-95
2023/06/19 00:56:50;;;;;;;5.78;4.50;;;20.90;92.70;;;;;;5081501;28;20173;-95
2023/06/19 00:59:18;;;;;;;6.22;4.70;;;20.80;92.60;;;;;;5081895;28;20216;-94
2023/06/19 01:04:19;;;;;;;5.30;4.40;;;20.80;92.80;;;;;;5232426;22;20230;-95
2023/06/19 01:07:09;;;;;;;5.43;4.70;;;20.80;93.00;;;;;;5036381;28;20182;-93
2023/06/19 01:09:51;;;;;;;5.65;4.97;;;20.80;92.60;;;;;;5036493;28;20171;-95
2023/06/19 01:12:23;;;;;;;5.68;5.18;;;20.80;92.90;;;;;;5036629;28;20240;-93
2023/06/19 01:14:59;;;;;;;19.45;5.50;;;20.80;92.80;;;;;;5036803;28;20185;-95
2023/06/19 01:17:28;;;;;;;6.80;4.88;;;20.80;92.70;;;;;;5036393;28;20273;-94
2023/06/19 01:19:55;;;;;;;5.25;4.75;;;20.80;92.80;;;;;;5036070;28;20237;-93
2023/06/19 01:22:30;;;;;;;5.25;4.38;;;20.80;93.00;;;;;;5035851;28;20170;-95
2023/06/19 01:24:57;;;;;;;7.05;4.97;;;20.90;92.70;;;;;;5035860;28;20255;-90
2023/06/19 01:27:25;;;;;;;6.95;4.60;;;20.90;92.40;;;;;;5036082;28;20175;-93
2023/06/19 01:29:53;;;;;;;7.30;5.50;;;20.90;92.40;;;;;;5035976;28;20182;-93
2023/06/19 01:32:25;;;;;;;5.90;4.68;;;21.00;92.10;;;;;;5035884;28;20178;-92
2023/06/19 01:34:54;;;;;;;8.07;5.03;;;21.00;92.40;;;;;;5035512;28;20248;-93
2023/06/19 01:37:20;;;;;;;5.10;4.55;;;21.00;92.10;;;;;;5035879;28;20186;-91
2023/06/19 01:39:46;;;;;;;6.82;4.50;;;21.00;92.20;;;;;;5035827;28;20189;-94
2023/06/19 01:42:15;;;;;;;5.13;4.63;;;21.10;92.30;;;;;;5035860;28;20183;-94
2023/06/19 01:44:41;;;;;;;6.47;4.70;;;21.10;92.40;;;;;;5035811;28;20257;-96
2023/06/19 01:47:15;;;;;;;5.93;5.05;;;21.00;92.40;;;;;;5035689;28;20490;-92
2023/06/19 01:49:40;;;;;;;5.25;4.60;;;21.00;92.70;;;;;;5035473;28;20232;-92
2023/06/19 01:52:06;;;;;;;5.05;4.50;;;21.00;92.40;;;;;;5035928;28;20175;-96
2023/06/19 01:54:32;;;;;;;6.22;4.85;;;21.00;92.50;;;;;;5035685;28;20209;-94
2023/06/19 01:56:58;;;;;;;6.93;4.93;;;21.00;92.30;;;;;;5035903;28;20171;-95
2023/06/19 01:59:24;;;;;;;4.95;4.45;;;21.00;92.40;;;;;;5035283;28;20293;-96
2023/06/19 02:01:50;;;;;;;6.55;5.18;;;21.00;92.60;;;;;;5035417;28;20265;-96
2023/06/19 02:04:15;;;;;;;8.77;5.18;;;21.00;92.40;;;;;;5035166;28;20242;-94
2023/06/19 02:06:41;;;;;;;10.25;5.40;;;21.00;92.80;;;;;;5035445;28;20632;-94
2023/06/19 02:09:07;;;;;;;8.45;5.10;;;21.10;92.50;;;;;;5035336;28;20704;-96
2023/06/19 02:11:33;;;;;;;5.57;4.63;;;21.10;92.30;;;;;;5035388;28;20175;-95
2023/06/19 02:13:59;;;;;;;5.57;4.22;;;21.10;92.40;;;;;;5035179;28;20277;-94
2023/06/19 02:16:24;;;;;;;5.72;5.03;;;21.10;92.40;;;;;;5036553;28;20185;-95
2023/06/19 02:18:50;;;;;;;9.73;5.05;;;21.10;92.10;;;;;;5034972;28;20214;-95
2023/06/19 02:21:16;;;;;;;5.60;4.68;;;21.10;92.30;;;;;;5034908;28;20269;-95
2023/06/19 02:23:41;;;;;;;6.38;4.40;;;21.00;92.40;;;;;;5035409;28;20186;-91
2023/06/19 02:26:07;;;;;;;5.35;4.70;;;21.00;92.60;;;;;;5035136;28;20178;-94
2023/06/19 02:28:32;;;;;;;5.05;4.55;;;21.00;92.70;;;;;;5035175;28;20261;-96
2023/06/19 02:30:58;;;;;;;5.18;4.60;;;21.00;93.10;;;;;;5036030;28;20506;-96
2023/06/19 02:33:24;;;;;;;5.90;4.57;;;20.90;92.90;;;;;;5034745;28;20205;-94
2023/06/19 02:35:50;;;;;;;6.72;4.45;;;20.90;92.90;;;;;;5035004;28;20175;-96
2023/06/19 02:38:18;;;;;;;4.75;4.20;;;20.90;93.20;;;;;;5036066;28;20206;-96
2023/06/19 02:40:44;;;;;;;7.70;4.90;;;20.80;93.10;;;;;;5035522;28;20236;-91
2023/06/19 02:43:09;;;;;;;6.50;4.70;;;20.80;93.10;;;;;;5035505;28;20429;-92
2023/06/19 02:45:35;;;;;;;6.93;4.80;;;20.80;93.00;;;;;;5034761;28;20178;-94
2023/06/19 02:48:01;;;;;;;6.40;5.18;;;20.80;93.10;;;;;;5034728;28;20502;-96
2023/06/19 02:50:27;;;;;;;4.80;4.40;;;20.80;93.00;;;;;;5034681;28;20183;-92
2023/06/19 02:52:52;;;;;;;4.88;4.43;;;20.80;93.30;;;;;;5034390;28;20672;-95
2023/06/19 02:55:18;;;;;;;6.28;4.07;;;20.80;93.20;;;;;;5034548;28;20208;-92
2023/06/19 02:57:44;;;;;;;4.97;4.43;;;20.80;93.10;;;;;;5034309;28;20256;-95
2023/06/19 03:00:12;;;;;;;5.70;4.97;;;20.80;93.10;;;;;;5033998;28;20677;-94
2023/06/19 03:02:43;;;;;;;5.05;4.38;;;20.80;93.00;;;;;;5034198;28;20178;-94
2023/06/19 03:05:10;;;;;;;5.10;4.60;;;20.80;93.70;;;;;;5034187;28;20195;-92
2023/06/19 03:07:36;;;;;;;6.10;4.60;;;20.80;93.30;;;;;;5034253;28;20181;-94
2023/06/19 03:10:02;;;;;;;5.55;4.47;;;20.80;93.00;;;;;;5034051;28;20178;-91
2023/06/19 03:12:27;;;;;;;5.30;4.80;;;20.80;93.10;;;;;;5034175;28;20189;-93
2023/06/19 03:14:53;;;;;;;7.20;5.03;;;20.80;93.30;;;;;;5033963;28;20182;-93
2023/06/19 03:17:18;;;;;;;7.63;4.60;;;20.80;93.10;;;;;;5035021;28;20175;-91
2023/06/19 03:19:44;;;;;;;6.85;5.25;;;20.80;93.20;;;;;;5034490;28;20186;-90
2023/06/19 03:22:09;;;;;;;6.43;4.97;;;20.80;93.40;;;;;;5033904;28;20178;-92
2023/06/19 03:24:35;;;;;;;5.82;5.00;;;20.80;93.30;;;;;;5034054;28;20257;-94
2023/06/19 03:27:01;;;;;;;7.07;4.22;;;20.70;93.90;;;;;;5033873;28;20785;-94
2023/06/19 03:29:26;;;;;;;6.40;4.40;;;20.70;93.50;;;;;;5033611;28;20174;-93
2023/06/19 03:31:52;;;;;;;5.10;4.60;;;20.70;93.50;;;;;;5033671;28;20526;-90
2023/06/19 03:34:18;;;;;;;6.82;5.05;;;20.70;93.20;;;;;;5033650;28;20175;-92
2023/06/19 03:36:44;;;;;;;4.88;4.22;;;20.70;93.50;;;;;;5033694;28;20691;-94
2023/06/19 03:39:09;;;;;;;5.50;4.57;;;20.70;93.80;;;;;;5033510;28;20202;-94
2023/06/19 03:41:35;;;;;;;4.95;4.43;;;20.70;93.80;;;;;;5033651;28;20613;-94
2023/06/19 03:44:01;;;;;;;5.15;4.65;;;20.70;93.80;;;;;;5033262;28;20178;-94
2023/06/19 03:46:26;;;;;;;5.35;4.85;;;20.70;93.60;;;;;;5032790;28;20190;-93
2023/06/19 03:48:52;;;;;;;5.82;4.60;;;20.70;93.70;;;;;;5033098;28;20171;-93
2023/06/19 03:51:18;;;;;;;6.20;4.47;;;20.80;93.80;;;;;;5033324;28;20171;-95
2023/06/19 03:53:44;;;;;;;6.18;4.70;;;20.70;93.90;;;;;;5034598;28;20309;-95
2023/06/19 03:56:09;;;;;;;4.65;4.25;;;20.70;93.90;;;;;;5033269;28;20183;-95
2023/06/19 03:58:35;;;;;;;4.95;4.45;;;20.70;94.00;;;;;;5033240;28;20198;-92
2023/06/19 04:01:01;;;;;;;5.10;4.35;;;20.70;94.10;;;;;;5033146;28;20179;-93
2023/06/19 04:03:26;;;;;;;4.97;4.47;;;20.70;94.10;;;;;;5032981;28;20226;-94
2023/06/19 04:05:52;;;;;;;5.05;4.47;;;20.70;94.10;;;;;;5033199;28;20178;-90
2023/06/19 04:08:17;;;;;;;11.30;4.80;;;20.70;94.00;;;;;;5030235;28;20192;-93
2023/06/19 04:10:44;;;;;;;6.18;4.68;;;20.70;93.90;;;;;;5023510;28;20269;-91
2023/06/19 04:13:09;;;;;;;7.07;4.50;;;20.70;93.80;;;;;;5023985;28;20213;-91
2023/06/19 04:15:36;;;;;;;4.68;4.25;;;20.70;93.80;;;;;;5024333;28;20187;-89
2023/06/19 04:18:03;;;;;;;6.18;4.40;;;20.70;94.80;;;;;;5024260;28;20203;-88
2023/06/19 04:20:28;;;;;;;4.55;4.15;;;20.50;95.30;;;;;;5022897;28;20490;-88
2023/06/19 04:22:54;;;;;;;5.50;4.47;;;20.50;95.60;;;;;;5023126;28;20258;-88
2023/06/19 04:25:20;;;;;;;5.38;4.18;;;20.40;96.30;;;;;;5021610;28;20265;-89
2023/06/19 04:27:45;;;;;;;4.97;4.47;;;20.40;97.10;;;;;;5021795;28;20170;-90
2023/06/19 04:30:11;;;;;;;5.05;4.45;;;20.30;96.60;;;;;;5022581;28;20229;-90
2023/06/19 04:32:40;;;;;;;7.03;4.78;;;20.30;96.90;;;;;;5021084;28;20181;-89
2023/06/19 04:35:09;;;;;;;8.00;4.65;;;20.30;97.70;;;;;;5019650;28;20215;-90
2023/06/19 04:37:35;;;;;;;5.18;4.32;;;20.20;98.00;;;;;;5012887;28;20199;-89
2023/06/19 04:40:03;;;;;;;4.60;4.20;;;20.20;98.40;;;;;;5016630;28;20618;-90
2023/06/19 04:42:28;;;;;;;5.53;4.13;;;20.10;98.70;;;;;;5032453;28;20178;-89
2023/06/19 04:44:55;;;;;;;6.32;5.00;;;20.20;97.70;;;;;;5032702;28;20179;-90
2023/06/19 04:47:23;;;;;;;5.72;4.63;;;20.20;97.10;;;;;;5032991;28;20174;-92
2023/06/19 04:49:48;;;;;;;6.07;4.82;;;20.30;98.50;;;;;;5032818;28;20171;-94
2023/06/19 04:52:14;;;;;;;10.38;5.45;;;20.30;98.30;;;;;;5032929;28;20499;-94
2023/06/19 04:54:40;;;;;;;5.97;4.82;;;20.30;99.00;;;;;;5032988;28;20515;-94
2023/06/19 04:57:06;;;;;;;7.57;5.00;;;20.30;99.00;;;;;;5032992;28;20197;-94
2023/06/19 04:59:32;;;;;;;8.23;4.95;;;20.20;98.60;;;;;;5035358;28;20210;-92
2023/06/19 05:01:59;;;;;;;5.07;4.57;;;20.20;98.70;;;;;;5030062;28;20626;-92
2023/06/19 05:04:24;;;;;;;6.53;4.90;;;20.20;99.60;;;;;;5016685;28;20257;-93
2023/06/19 05:06:50;;;;;;;7.15;5.18;;;20.20;99.90;;;;;;5015740;28;20178;-95
2023/06/19 05:09:16;;;;;;;5.57;4.72;;;20.10;99.60;;;;;;5016433;28;20171;-94
2023/06/19 05:11:42;;;;;;;5.82;5.10;;;20.10;99.20;;;;;;5016539;28;20277;-90
2023/06/19 05:14:11;;;;;;;7.05;5.20;;;20.10;99.50;;;;;;5016559;28;20186;-94
2023/06/19 05:16:36;;;;;;;7.32;5.35;;;20.10;99.10;;;;;;5016587;28;20644;-92
2023/06/19 05:19:02;;;;;;;5.60;4.85;;;20.10;98.70;;;;;;5016204;28;20203;-90
2023/06/19 05:21:28;;;;;;;6.22;5.00;;;20.10;98.80;;;;;;5016094;28;20191;-95
2023/06/19 05:23:53;;;;;;;5.65;5.00;;;20.20;99.20;;;;;;5016025;28;20183;-91
2023/06/19 05:26:20;;;;;;;6.32;5.03;;;20.10;99.60;;;;;;5016097;28;20513;-93
2023/06/19 05:28:46;;;;;;;8.88;5.25;;;20.10;99.20;;;;;;5016378;28;20171;-91
2023/06/19 05:31:12;;;;;;;8.55;4.80;;;20.10;99.40;;;;;;5016149;28;20187;-90
2023/06/19 05:33:37;;;;;;;5.35;4.63;;;20.10;99.40;;;;;;5016017;28;20191;-91
2023/06/19 05:36:03;;;;;;;7.95;5.00;;;20.10;99.10;;;;;;5016343;28;20175;-92
2023/06/19 05:38:30;;;;;;;5.30;4.72;;;20.10;99.00;;;;;;5016131;28;20294;-92
2023/06/19 05:40:57;;;;;;;7.95;5.18;;;20.10;98.70;;;;;;5016288;28;20179;-93
2023/06/19 05:43:24;;;;;;;6.93;4.75;;;20.20;98.90;;;;;;5016044;28;20614;-94
2023/06/19 05:45:50;;;;;;;5.00;4.50;;;20.20;99.10;;;;;;5016008;28;20192;-94
2023/06/19 05:48:16;;;;;;;7.72;5.18;;;20.20;99.50;;;;;;5015923;28;20183;-94
2023/06/19 05:50:42;;;;;;;6.95;4.63;;;20.20;99.90;;;;;;5015812;28;20274;-92
2023/06/19 05:53:08;;;;;;;5.70;5.10;;;20.30;99.90;;;;;;5015810;28;20237;-91
2023/06/19 05:55:33;;;;;;;12.50;5.28;;;20.30;99.90;;;;;;5015605;28;20188;-94
2023/06/19 05:57:59;;;;;;;5.55;5.00;;;20.30;99.60;;;;;;5015780;28;20226;-94
2023/06/19 06:00:25;;;;;;;5.70;5.10;;;20.30;99.10;;;;;;5015758;28;20163;-92
2023/06/19 06:02:51;;;;;;;6.22;4.90;;;20.30;98.80;;;;;;5015323;28;20190;-90
2023/06/19 06:05:20;;;;;;;6.93;4.90;;;20.30;99.50;;;;;;5015445;28;20557;-89
2023/06/19 06:07:46;;;;;;;7.47;5.03;;;20.30;99.90;;;;;;5015470;28;20614;-90
2023/06/19 06:10:11;;;;;;;7.13;5.20;;;20.30;99.90;;;;;;5014584;28;20205;-89
2023/06/19 06:12:37;;;;;;;5.97;4.80;;;20.30;99.90;;;;;;5015246;28;20180;-90
2023/06/19 06:15:05;;;;;;;9.63;4.90;;;20.30;99.90;;;;;;5015289;28;20520;-91
2023/06/19 06:17:31;;;;;;;6.40;4.75;;;20.30;99.70;;;;;;5015344;28;20183;-91
2023/06/19 06:19:56;;;;;;;5.97;4.93;;;20.30;99.90;;;;;;5015014;28;20189;-90
2023/06/19 06:22:22;;;;;;;6.47;4.70;;;20.30;99.90;;;;;;5014762;28;20221;-89
2023/06/19 06:24:48;;;;;;;6.10;5.50;;;20.30;99.90;;;;;;5015259;28;20179;-89
2023/06/19 06:27:14;;;;;;;8.13;5.35;;;20.20;99.90;;;;;;5015222;28;20179;-91
2023/06/19 06:29:39;;;;;;;11.20;6.43;;;20.20;99.90;;;;;;5015044;28;20179;-90
2023/06/19 06:32:07;;;;;;;9.23;6.38;;;20.20;99.90;;;;;;5015006;28;20346;-92
2023/06/19 06:34:35;;;;;;;8.80;6.22;;;20.20;99.90;;;;;;5014868;28;20648;-90
2023/06/19 06:37:02;;;;;;;6.45;5.72;;;20.20;99.90;;;;;;5014956;28;20179;-90
2023/06/19 06:39:28;;;;;;;7.70;5.63;;;20.20;99.90;;;;;;5014883;28;20692;-90
2023/06/19 06:41:53;;;;;;;7.75;5.43;;;20.20;99.90;;;;;;5014901;28;20266;-88
2023/06/19 06:44:19;;;;;;;9.55;6.10;;;20.20;99.90;;;;;;5014772;28;20649;-89
2023/06/19 06:46:45;;;;;;;9.60;5.75;;;20.30;99.90;;;;;;5014668;28;20225;-88
2023/06/19 06:49:12;;;;;;;7.55;6.18;;;20.30;99.90;;;;;;5014316;28;20175;-89
2023/06/19 06:51:37;;;;;;;7.57;5.72;;;20.40;99.90;;;;;;5014379;28;20183;-89
2023/06/19 06:54:03;;;;;;;8.23;6.07;;;20.50;99.90;;;;;;5014523;28;20183;-89
2023/06/19 06:56:29;;;;;;;9.88;6.35;;;20.50;99.90;;;;;;5014599;28;20432;-90
2023/06/19 06:58:55;;;;;;;6.82;5.50;;;20.50;99.90;;;;;;5014461;28;20669;-92
2023/06/19 07:01:20;;;;;;;8.60;5.90;;;20.50;99.90;;;;;;5014383;28;20250;-86
2023/06/19 07:03:46;;;;;;;6.43;5.82;;;20.60;99.90;;;;;;5014511;28;20558;-88
2023/06/19 07:06:12;;;;;;;6.82;5.55;;;20.60;99.90;;;;;;5014243;28;20543;-87
2023/06/19 07:08:40;;;;;;;5.57;4.88;;;20.70;99.90;;;;;;5014542;28;20200;-87
2023/06/19 07:11:06;;;;;;;12.57;5.88;;;20.80;99.90;;;;;;5014449;28;20599;-88
2023/06/19 07:13:32;;;;;;;7.32;5.68;;;20.90;99.90;;;;;;5014173;28;20229;-89
2023/06/19 07:15:59;;;;;;;7.82;5.10;;;20.90;99.90;;;;;;5014149;28;20625;-87
2023/06/19 07:18:24;;;;;;;7.30;5.82;;;21.00;99.90;;;;;;5013848;28;20207;-88
2023/06/19 07:20:50;;;;;;;9.05;5.38;;;21.10;99.90;;;;;;5013735;28;20221;-90
2023/06/19 07:23:16;;;;;;;6.55;5.55;;;21.30;99.90;;;;;;5014117;28;20186;-92
2023/06/19 07:25:42;;;;;;;7.55;5.57;;;21.40;99.90;;;;;;5014067;28;20183;-90
2023/06/19 07:28:08;;;;;;;8.85;5.50;;;21.60;99.90;;;;;;5013931;28;20179;-90
2023/06/19 07:30:33;;;;;;;7.13;5.25;;;21.70;99.90;;;;;;5013908;28;20192;-91
2023/06/19 07:32:59;;;;;;;8.05;4.82;;;21.80;99.90;;;;;;5014950;28;20175;-90
2023/06/19 07:35:24;;;;;;;6.18;5.18;;;21.80;99.90;;;;;;5013822;28;20185;-90
2023/06/19 07:37:50;;;;;;;10.73;5.57;;;22.00;99.90;;;;;;5014150;28;20532;-90
2023/06/19 07:40:16;;;;;;;12.60;5.35;;;22.10;99.90;;;;;;5013615;28;20182;-88
2023/06/19 07:42:41;;;;;;;7.55;5.38;;;22.40;99.90;;;;;;5013503;28;20183;-89
2023/06/19 07:45:08;;;;;;;8.88;5.80;;;22.80;99.90;;;;;;5013811;28;20179;-90
2023/06/19 07:47:34;;;;;;;9.63;5.60;;;23.00;99.20;;;;;;5014697;28;20172;-88
2023/06/19 07:50:00;;;;;;;7.60;5.10;;;23.20;99.80;;;;;;5013594;28;20178;-92
2023/06/19 07:52:26;;;;;;;10.40;5.53;;;23.20;98.10;;;;;;5014794;28;20172;-90
2023/06/19 07:54:54;;;;;;;11.90;5.55;;;23.20;99.50;;;;;;5014011;28;20225;-90
2023/06/19 07:57:20;;;;;;;5.90;5.20;;;23.10;98.90;;;;;;5013654;28;20183;-91
2023/06/19 07:59:47;;;;;;;6.18;5.57;;;23.10;99.10;;;;;;5013717;28;20298;-88
2023/06/19 08:02:13;;;;;;;7.70;5.20;;;23.00;99.60;;;;;;5013553;28;20606;-88
2023/06/19 08:04:38;;;;;;;8.82;5.50;;;22.80;99.00;;;;;;5013466;28;20288;-90
2023/06/19 08:07:04;;;;;;;7.90;5.18;;;22.80;99.90;;;;;;5013568;28;20186;-89
2023/06/19 08:09:30;;;;;;;5.65;5.13;;;22.80;99.90;;;;;;5013427;28;20195;-86
2023/06/19 08:11:56;;;;;;;6.70;5.70;;;22.80;99.90;;;;;;5013308;28;20632;-89
2023/06/19 08:14:22;;;;;;;8.40;5.82;;;22.70;99.90;;;;;;5013437;28;20183;-90
2023/06/19 08:16:48;;;;;;;8.82;5.18;;;22.80;99.90;;;;;;5013183;28;20602;-90
2023/06/19 08:19:14;;;;;;;6.43;5.78;;;22.80;99.90;;;;;;5013184;28;20269;-91
2023/06/19 08:21:40;;;;;;;7.22;5.43;;;22.80;99.90;;;;;;5013370;28;20175;-89
2023/06/19 08:24:06;;;;;;;6.95;5.57;;;22.80;99.90;;;;;;5013523;28;20175;-92
2023/06/19 08:26:32;;;;;;;6.15;5.43;;;22.90;99.90;;;;;;5013589;28;20206;-88
2023/06/19 08:28:57;;;;;;;8.57;5.55;;;22.90;99.90;;;;;;5014547;28;20210;-91
2023/06/19 08:31:27;;;;;;;6.60;5.55;;;22.90;99.90;;;;;;5013237;28;20624;-89
2023/06/19 08:33:54;;;;;;;6.82;5.40;;;23.00;99.90;;;;;;5015118;28;20187;-87
2023/06/19 08:36:19;;;;;;;9.57;5.90;;;23.10;99.90;;;;;;5017241;28;20813;-87
2023/06/19 08:38:49;;;;;;;6.13;5.53;;;23.30;99.90;;;;;;5017154;28;20218;-89
2023/06/19 08:41:15;;;;;;;8.20;5.82;;;23.70;99.80;;;;;;5017121;28;20183;-87
2023/06/19 08:43:42;;;;;;;6.40;4.93;;;23.90;99.00;;;;;;5017137;28;20209;-87
2023/06/19 08:46:18;;;;;;;6.57;5.63;;;24.10;97.90;;;;;;5017141;28;20198;-89
2023/06/19 08:48:44;;;;;;;7.75;5.55;;;24.20;98.70;;;;;;5017331;28;20630;-88
2023/06/19 08:51:11;;;;;;;8.48;5.78;;;24.20;99.10;;;;;;5016681;28;20233;-91
2023/06/19 08:53:45;;;;;;;6.38;5.43;;;24.40;99.90;;;;;;5017209;28;20186;-88
2023/06/19 08:56:11;;;;;;;6.28;5.45;;;24.60;98.10;;;;;;5017087;28;20185;-91
2023/06/19 08:58:37;;;;;;;10.38;5.72;;;24.80;98.50;;;;;;5017000;28;20211;-93
2023/06/19 09:01:03;;;;;;;10.55;5.68;;;25.20;98.00;;;;;;5016829;28;20270;-88
2023/06/19 09:03:31;;;;;;;7.15;5.22;;;25.60;98.40;;;;;;5016952;28;20315;-88
2023/06/19 09:06:08;;;;;;;7.68;5.32;;;25.80;95.80;;;;;;5016726;28;20183;-89
2023/06/19 09:08:34;;;;;;;9.55;5.47;;;25.90;97.80;;;;;;5016831;28;20205;-89
2023/06/19 09:11:04;;;;;;;13.30;5.15;;;25.90;95.90;;;;;;5016674;28;20183;-88
2023/06/19 09:13:31;;;;;;;9.77;5.57;;;26.00;95.80;;;;;;5016477;28;20187;-88
2023/06/19 09:16:05;;;;;;;8.50;5.70;;;26.00;97.00;;;;;;5016537;28;20179;-87
2023/06/19 09:18:42;;;;;;;10.05;5.78;;;26.00;95.50;;;;;;5016588;28;20199;-89
2023/06/19 09:21:18;;;;;;;10.32;5.50;;;26.20;96.90;;;;;;5016334;28;20175;-89
2023/06/19 09:23:46;;;;;;;12.68;6.10;;;26.30;96.80;;;;;;5016037;28;20669;-88
2023/06/19 09:26:15;;;;;;;8.18;5.43;;;26.50;96.30;;;;;;5016210;28;20281;-88
2023/06/19 09:28:45;;;;;;;8.32;5.35;;;26.60;95.80;;;;;;5016535;28;20270;-87
2023/06/19 09:31:12;;;;;;;6.72;5.50;;;26.80;95.50;;;;;;5016200;28;20198;-88
2023/06/19 09:33:39;;;;;;;8.82;5.65;;;26.90;95.30;;;;;;5016161;28;20175;-90
2023/06/19 09:36:06;;;;;;;5.57;5.00;;;26.90;95.40;;;;;;5015774;28;20190;-87
2023/06/19 09:38:43;;;;;;;6.93;4.85;;;27.00;95.70;;;;;;5017142;28;20261;-89
2023/06/19 09:41:09;;;;;;;11.57;4.97;;;27.20;94.50;;;;;;5016060;28;20602;-88
2023/06/19 09:43:41;;;;;;;5.55;5.03;;;27.40;92.60;;;;;;5015929;28;20216;-91
2023/06/19 09:46:08;;;;;;;8.77;5.00;;;27.50;93.00;;;;;;5015820;28;20183;-87
2023/06/19 09:48:36;;;;;;;5.95;5.18;;;27.70;92.90;;;;;;5016066;28;20186;-88
2023/06/19 09:51:20;;;;;;;8.20;5.03;;;27.60;91.00;;;;;;5015756;28;20186;-86
2023/06/19 09:53:47;;;;;;;6.18;5.55;;;27.30;92.00;;;;;;5015714;28;20233;-86
2023/06/19 09:56:14;;;;;;;7.10;5.10;;;27.10;92.10;;;;;;5015706;28;20172;-86
2023/06/19 09:58:44;;;;;;;6.82;4.90;;;27.10;93.90;;;;;;5016689;28;20703;-88
2023/06/19 10:01:11;;;;;;;8.50;5.25;;;27.30;94.00;;;;;;5015599;28;20619;-89
2023/06/19 10:03:37;;;;;;;5.78;5.10;;;27.60;91.40;;;;;;5015219;28;20270;-89
2023/06/19 10:06:06;;;;;;;5.35;4.85;;;27.70;90.60;;;;;;5015642;28;20175;-87
2023/06/19 10:08:40;;;;;;;7.95;5.32;;;27.70;91.40;;;;;;5015602;28;20214;-89
2023/06/19 10:11:07;;;;;;;8.25;4.95;;;27.70;90.30;;;;;;5015426;28;20631;-88
2023/06/19 10:13:35;;;;;;;8.93;5.35;;;27.60;90.40;;;;;;5015146;28;20183;-91
2023/06/19 10:16:01;;;;;;;6.18;5.25;;;27.70;89.80;;;;;;5015378;28;20179;-91
2023/06/19 10:18:27;;;;;;;7.13;5.57;;;27.80;91.20;;;;;;5015595;28;20314;-88
2023/06/19 10:20:54;;;;;;;5.85;5.20;;;27.80;91.00;;;;;;5015190;28;20214;-87
2023/06/19 10:23:23;;;;;;;5.75;5.25;;;27.90;90.70;;;;;;5015269;28;20617;-88
2023/06/19 10:25:56;;;;;;;8.00;4.90;;;27.90;90.90;;;;;;5015057;28;20190;-87
2023/06/19 10:28:27;;;;;;;8.18;5.85;;;28.00;91.20;;;;;;5016229;28;20210;-89
2023/06/19 10:31:04;;;;;;;7.78;5.25;;;28.00;91.20;;;;;;5015126;28;20206;-89
2023/06/19 10:33:32;;;;;;;7.53;5.38;;;27.90;90.00;;;;;;5015065;28;20620;-88
2023/06/19 10:35:59;;;;;;;6.07;5.47;;;27.60;90.10;;;;;;5015226;28;20272;-88
2023/06/19 10:38:26;;;;;;;6.13;5.53;;;27.50;90.50;;;;;;5015845;28;20199;-89
2023/06/19 10:40:52;;;;;;;7.57;5.40;;;27.50;91.50;;;;;;5014815;28;20234;-88
2023/06/19 10:43:24;;;;;;;5.18;4.68;;;27.50;91.50;;;;;;5014600;28;20171;-87
2023/06/19 10:45:51;;;;;;;5.15;4.60;;;27.40;91.00;;;;;;5014737;28;20175;-88
2023/06/19 10:48:22;;;;;;;5.55;4.97;;;27.50;92.10;;;;;;5014741;28;20221;-91
2023/06/19 10:50:48;;;;;;;9.85;5.30;;;27.50;91.10;;;;;;5014804;28;20176;-89
2023/06/19 10:53:33;;;;;;;7.78;5.60;;;27.70;90.80;;;;;;5014406;28;20998;-91
2023/06/19 10:56:01;;;;;;;6.00;5.30;;;27.70;90.50;;;;;;5014209;28;20233;-88
2023/06/19 10:58:28;;;;;;;5.90;5.30;;;27.70;90.90;;;;;;5014717;28;20281;-89
2023/06/19 11:00:54;;;;;;;7.32;5.13;;;27.90;89.70;;;;;;5014397;28;20177;-88
2023/06/19 11:03:21;;;;;;;6.85;5.55;;;28.00;90.00;;;;;;5014151;28;20235;-89
2023/06/19 11:05:48;;;;;;;9.30;4.97;;;27.90;88.50;;;;;;5014350;28;20179;-89
2023/06/19 11:08:19;;;;;;;5.57;4.95;;;27.80;90.00;;;;;;5014490;28;20175;-88
2023/06/19 11:10:45;;;;;;;5.20;4.70;;;27.70;91.40;;;;;;5014403;28;20183;-88
2023/06/19 11:13:15;;;;;;;5.43;4.63;;;27.80;90.60;;;;;;5014165;28;20178;-88
2023/06/19 11:15:41;;;;;;;5.55;5.05;;;27.90;91.40;;;;;;5014335;28;20267;-88
2023/06/19 11:18:07;;;;;;;5.18;4.68;;;27.90;91.50;;;;;;5014266;28;20207;-89
2023/06/19 11:20:50;;;;;;;5.30;4.80;;;27.90;91.40;;;;;;5014099;28;20190;-88
2023/06/19 11:23:24;;;;;;;5.10;4.65;;;27.80;90.60;;;;;;5014448;28;20225;-87
2023/06/19 11:25:50;;;;;;;6.03;4.47;;;28.10;91.80;;;;;;5014225;28;20179;-86
2023/06/19 11:28:22;;;;;;;5.20;4.70;;;28.20;91.10;;;;;;5013818;28;20287;-88
2023/06/19 11:30:57;;;;;;;6.40;4.70;;;28.20;91.00;;;;;;5013805;28;20175;-92
2023/06/19 11:33:22;;;;;;;5.75;4.80;;;28.20;92.00;;;;;;5014057;28;20261;-87
2023/06/19 11:35:50;;;;;;;5.28;4.78;;;28.40;91.60;;;;;;5014066;28;20633;-86
2023/06/19 11:38:21;;;;;;;6.78;4.95;;;28.80;91.10;;;;;;5014076;28;20210;-88
2023/06/19 11:40:47;;;;;;;5.18;4.55;;;29.10;91.10;;;;;;5014039;28;20317;-88
2023/06/19 11:43:24;;;;;;;5.35;4.85;;;29.40;90.80;;;;;;5014763;28;20167;-89
2023/06/19 11:45:51;;;;;;;5.50;4.75;;;29.50;87.70;;;;;;5013907;28;20241;-87
2023/06/19 11:48:26;;;;;;;7.30;5.13;;;29.60;88.10;;;;;;5013868;28;20260;-90
2023/06/19 11:50:53;;;;;;;5.60;5.00;;;29.80;88.60;;;;;;5013934;28;20182;-88
2023/06/19 11:53:21;;;;;;;7.30;4.88;;;29.60;86.50;;;;;;5013645;28;20609;-89
2023/06/19 11:55:47;;;;;;;6.07;4.80;;;29.50;86.40;;;;;;5013403;28;20210;-89
2023/06/19 11:58:12;;;;;;;5.75;5.22;;;29.50;86.00;;;;;;5013593;28;20216;-90
2023/06/19 12:00:38;;;;;;;5.53;4.95;;;29.40;88.20;;;;;;5014823;28;20272;-89
2023/06/19 12:03:04;;;;;;;5.45;4.90;;;29.10;87.40;;;;;;5013376;28;20546;-88
2023/06/19 12:05:30;;;;;;;6.32;5.30;;;29.00;85.80;;;;;;5013676;28;20629;-89
2023/06/19 12:07:56;;;;;;;5.28;4.78;;;28.90;89.90;;;;;;5012623;28;20190;-90
2023/06/19 12:10:22;;;;;;;6.72;4.85;;;28.90;90.40;;;;;;5013382;28;20182;-88
2023/06/19 12:12:47;;;;;;;7.70;5.47;;;28.70;88.50;;;;;;5013473;28;20272;-87
2023/06/19 12:15:13;;;;;;;5.65;4.80;;;28.60;88.30;;;;;;5013478;28;20233;-89
2023/06/19 12:17:39;;;;;;;7.63;4.80;;;28.60;87.40;;;;;;5013413;28;20174;-88
2023/06/19 12:20:05;;;;;;;5.72;4.57;;;28.60;89.00;;;;;;5013204;28;20182;-89
2023/06/19 12:22:33;;;;;;;6.82;4.80;;;28.60;86.90;;;;;;5013129;28;20273;-88
2023/06/19 12:24:59;;;;;;;6.03;5.07;;;28.60;90.10;;;;;;5014316;28;20202;-88
2023/06/19 12:27:24;;;;;;;5.50;4.72;;;28.70;91.40;;;;;;5013332;28;20198;-89
2023/06/19 12:29:50;;;;;;;6.05;4.60;;;28.70;88.90;;;;;;5013289;28;20262;-88
2023/06/19 12:32:16;;;;;;;5.15;4.65;;;28.80;91.50;;;;;;5013554;28;20182;-88
2023/06/19 12:34:46;;;;;;;8.60;5.45;;;29.00;92.20;;;;;;5013144;28;20224;-89
2023/06/19 12:37:17;;;;;;;5.18;4.68;;;29.00;91.80;;;;;;5013293;28;20183;-87
2023/06/19 12:39:43;;;;;;;5.10;4.60;;;29.00;91.70;;;;;;5013230;28;20249;-86
2023/06/19 12:42:11;;;;;;;5.90;4.82;;;28.90;92.40;;;;;;5014366;28;20598;-89
2023/06/19 12:44:40;;;;;;;5.53;4.55;;;28.80;91.80;;;;;;5014346;28;20182;-87
2023/06/19 12:47:06;;;;;;;5.00;4.50;;;28.60;92.70;;;;;;5013056;28;20200;-89